FWG117 EDDC-EDXW
Flight info
| Callsign | FWG117 |
|---|---|
| Flight time | 0h 56m |
| Altitude | 38000 |
| Route | OSKAN9E OSKAN M748 BUMIL L619 ELSOB Y348 OMWEG DCT BADOS DCT OLDIP |
| Aircraft | A320/M-SDE3FGHIRWY/LB1 |
Departure
| Time | 2026-05-05 18:31 |
|---|---|
| Airport | Dresden Airport (EDDC) |
Arrival
| Time | 2026-05-05 19:28 |
|---|---|
| Airport | Westerland Sylt Airport (EDXW) |
| Time | Latitude | Longitude | Altitude | Speed | Heading |
|---|---|---|---|---|---|
| 2026-05-05 18:10 | 51.12888 | 13.76653 | 753 ft | 0 kts | 311° |
| 2026-05-05 18:25 | 51.12892 | 13.76646 | 750 ft | 2 kts | 310° |
| 2026-05-05 18:25 | 51.12904 | 13.76558 | 753 ft | 10 kts | 242° |
| 2026-05-05 18:25 | 51.12843 | 13.76457 | 754 ft | 15 kts | 223° |
| 2026-05-05 18:26 | 51.12746 | 13.76338 | 753 ft | 19 kts | 224° |
| 2026-05-05 18:26 | 51.12636 | 13.76179 | 758 ft | 22 kts | 221° |
| 2026-05-05 18:26 | 51.12519 | 13.76017 | 758 ft | 23 kts | 221° |
| 2026-05-05 18:26 | 51.12414 | 13.75873 | 763 ft | 17 kts | 219° |
| 2026-05-05 18:27 | 51.12379 | 13.75729 | 764 ft | 15 kts | 296° |
| 2026-05-05 18:27 | 51.12406 | 13.75629 | 763 ft | 0 kts | 291° |
| 2026-05-05 18:29 | 51.12413 | 13.75606 | 764 ft | 12 kts | 300° |
| 2026-05-05 18:30 | 51.12475 | 13.75519 | 764 ft | 10 kts | 349° |
| 2026-05-05 18:30 | 51.12502 | 13.75522 | 764 ft | 2 kts | 31° |
| 2026-05-05 18:30 | 51.12503 | 13.75523 | 764 ft | 0 kts | 33° |
| 2026-05-05 18:30 | 51.12556 | 13.75590 | 763 ft | 41 kts | 39° |
| 2026-05-05 18:31 | 51.13006 | 13.76211 | 756 ft | 128 kts | 41° |
| 2026-05-05 18:31 | 51.13854 | 13.77387 | 829 ft | 186 kts | 40° |
| 2026-05-05 18:31 | 51.14881 | 13.78820 | 1579 ft | 198 kts | 41° |
| 2026-05-05 18:31 | 51.15895 | 13.80254 | 2541 ft | 193 kts | 42° |
| 2026-05-05 18:32 | 51.16944 | 13.81720 | 3100 ft | 209 kts | 41° |
| 2026-05-05 18:32 | 51.18095 | 13.83315 | 3604 ft | 229 kts | 42° |
| 2026-05-05 18:32 | 51.19341 | 13.84981 | 4365 ft | 239 kts | 36° |
| 2026-05-05 18:32 | 51.20983 | 13.85874 | 4927 ft | 266 kts | 1° |
| 2026-05-05 18:33 | 51.22853 | 13.85392 | 5765 ft | 278 kts | 348° |
| 2026-05-05 18:33 | 51.24759 | 13.84708 | 6722 ft | 284 kts | 348° |
| 2026-05-05 18:33 | 51.26716 | 13.84077 | 7772 ft | 289 kts | 349° |
| 2026-05-05 18:33 | 51.28714 | 13.83540 | 8903 ft | 294 kts | 351° |
| 2026-05-05 18:34 | 51.30732 | 13.82905 | 10018 ft | 298 kts | 341° |
| 2026-05-05 18:34 | 51.32622 | 13.81529 | 11061 ft | 301 kts | 326° |
| 2026-05-05 18:34 | 51.34282 | 13.79429 | 11953 ft | 314 kts | 316° |
| 2026-05-05 18:34 | 51.35963 | 13.77058 | 12483 ft | 339 kts | 316° |
| 2026-05-05 18:35 | 51.37792 | 13.74464 | 12970 ft | 364 kts | 316° |
| 2026-05-05 18:35 | 51.39728 | 13.71725 | 13714 ft | 378 kts | 316° |
| 2026-05-05 18:35 | 51.41717 | 13.68917 | 14619 ft | 385 kts | 316° |
| 2026-05-05 18:35 | 51.43743 | 13.66059 | 15588 ft | 390 kts | 316° |
| 2026-05-05 18:36 | 51.45802 | 13.63153 | 16581 ft | 396 kts | 316° |
| 2026-05-05 18:36 | 51.47885 | 13.60214 | 17576 ft | 402 kts | 316° |
| 2026-05-05 18:36 | 51.50011 | 13.57207 | 18366 ft | 413 kts | 316° |
| 2026-05-05 18:36 | 51.52217 | 13.54079 | 18665 ft | 435 kts | 316° |
| 2026-05-05 18:37 | 51.54539 | 13.50780 | 18786 ft | 458 kts | 316° |
| 2026-05-05 18:37 | 51.56981 | 13.47303 | 19004 ft | 470 kts | 316° |
| 2026-05-05 18:37 | 51.59317 | 13.43990 | 19778 ft | 432 kts | 315° |
| 2026-05-05 18:37 | 51.61536 | 13.40853 | 19777 ft | 420 kts | 315° |
| 2026-05-05 18:38 | 51.63729 | 13.37736 | 20256 ft | 421 kts | 315° |
| 2026-05-05 18:38 | 51.65920 | 13.34609 | 20940 ft | 423 kts | 315° |
| 2026-05-05 18:38 | 51.68131 | 13.31449 | 21548 ft | 425 kts | 315° |
| 2026-05-05 18:38 | 51.70347 | 13.28271 | 22121 ft | 428 kts | 315° |
| 2026-05-05 18:39 | 51.72581 | 13.25055 | 22682 ft | 431 kts | 314° |
| 2026-05-05 18:39 | 51.74825 | 13.21816 | 23226 ft | 435 kts | 314° |
| 2026-05-05 18:39 | 51.77057 | 13.18589 | 23699 ft | 437 kts | 314° |
| 2026-05-05 18:39 | 51.79333 | 13.15302 | 24161 ft | 440 kts | 314° |
| 2026-05-05 18:40 | 51.81621 | 13.12000 | 24623 ft | 442 kts | 314° |
| 2026-05-05 18:40 | 51.83928 | 13.08670 | 25087 ft | 445 kts | 314° |
| 2026-05-05 18:40 | 51.86237 | 13.05329 | 25536 ft | 447 kts | 314° |
| 2026-05-05 18:40 | 51.88561 | 13.01956 | 25980 ft | 449 kts | 314° |
| 2026-05-05 18:41 | 51.90888 | 12.98570 | 26408 ft | 452 kts | 314° |
| 2026-05-05 18:41 | 51.93235 | 12.95153 | 26820 ft | 454 kts | 314° |
| 2026-05-05 18:41 | 51.95593 | 12.91718 | 27225 ft | 456 kts | 314° |
| 2026-05-05 18:41 | 51.97954 | 12.88272 | 27614 ft | 459 kts | 314° |
| 2026-05-05 18:42 | 52.00334 | 12.84796 | 28026 ft | 460 kts | 314° |
| 2026-05-05 18:42 | 52.02711 | 12.81322 | 28586 ft | 459 kts | 314° |
| 2026-05-05 18:42 | 52.05079 | 12.77861 | 29146 ft | 457 kts | 314° |
| 2026-05-05 18:42 | 52.07445 | 12.74399 | 29710 ft | 456 kts | 313° |
| 2026-05-05 18:43 | 52.09788 | 12.70960 | 30211 ft | 454 kts | 313° |
| 2026-05-05 18:43 | 52.12145 | 12.67523 | 30702 ft | 453 kts | 313° |
| 2026-05-05 18:43 | 52.14498 | 12.64131 | 31202 ft | 451 kts | 314° |
| 2026-05-05 18:43 | 52.16822 | 12.60802 | 31715 ft | 449 kts | 313° |
| 2026-05-05 18:44 | 52.19165 | 12.57447 | 32241 ft | 447 kts | 313° |
| 2026-05-05 18:44 | 52.21524 | 12.54064 | 32765 ft | 445 kts | 313° |
| 2026-05-05 18:44 | 52.23839 | 12.50736 | 33290 ft | 443 kts | 313° |
| 2026-05-05 18:44 | 52.26148 | 12.47402 | 33825 ft | 441 kts | 313° |
| 2026-05-05 18:45 | 52.28405 | 12.44130 | 34274 ft | 439 kts | 313° |
| 2026-05-05 18:45 | 52.30687 | 12.40812 | 34704 ft | 438 kts | 313° |
| 2026-05-05 18:45 | 52.32965 | 12.37495 | 35125 ft | 438 kts | 313° |
| 2026-05-05 18:45 | 52.35232 | 12.34187 | 35537 ft | 437 kts | 313° |
| 2026-05-05 18:46 | 52.37507 | 12.30872 | 35932 ft | 437 kts | 313° |
| 2026-05-05 18:46 | 52.39769 | 12.27575 | 36319 ft | 436 kts | 313° |
| 2026-05-05 18:46 | 52.42043 | 12.24263 | 36703 ft | 436 kts | 313° |
| 2026-05-05 18:46 | 52.44307 | 12.20953 | 37076 ft | 435 kts | 313° |
| 2026-05-05 18:47 | 52.46560 | 12.17649 | 37445 ft | 435 kts | 313° |
| 2026-05-05 18:47 | 52.48798 | 12.14362 | 37797 ft | 435 kts | 313° |
| 2026-05-05 18:47 | 52.53321 | 12.07710 | 37868 ft | 437 kts | 313° |
| 2026-05-05 18:48 | 52.57844 | 12.01038 | 37872 ft | 437 kts | 313° |
| 2026-05-05 18:48 | 52.62364 | 11.94347 | 37875 ft | 437 kts | 313° |
| 2026-05-05 18:49 | 52.66870 | 11.87651 | 37877 ft | 437 kts | 313° |
| 2026-05-05 18:49 | 52.71378 | 11.80933 | 37885 ft | 436 kts | 313° |
| 2026-05-05 18:50 | 52.75886 | 11.74214 | 37895 ft | 437 kts | 313° |
| 2026-05-05 18:50 | 52.80368 | 11.67506 | 37902 ft | 437 kts | 313° |
| 2026-05-05 18:51 | 52.84871 | 11.60740 | 37912 ft | 437 kts | 313° |
| 2026-05-05 18:51 | 52.89373 | 11.53969 | 37918 ft | 437 kts | 313° |
| 2026-05-05 18:52 | 52.93868 | 11.47182 | 37918 ft | 437 kts | 313° |
| 2026-05-05 18:52 | 52.98357 | 11.40394 | 37919 ft | 437 kts | 313° |
| 2026-05-05 18:53 | 53.02744 | 11.33732 | 37920 ft | 436 kts | 313° |
| 2026-05-05 18:53 | 53.07212 | 11.26909 | 37918 ft | 436 kts | 313° |
| 2026-05-05 18:54 | 53.11682 | 11.20073 | 37923 ft | 436 kts | 313° |
| 2026-05-05 18:54 | 53.16137 | 11.13240 | 37925 ft | 436 kts | 313° |
| 2026-05-05 18:55 | 53.20597 | 11.06392 | 37934 ft | 436 kts | 313° |
| 2026-05-05 18:55 | 53.25048 | 10.99525 | 37926 ft | 435 kts | 312° |
| 2026-05-05 18:56 | 53.29463 | 10.92694 | 37939 ft | 435 kts | 312° |
| 2026-05-05 18:56 | 53.33911 | 10.85811 | 37936 ft | 436 kts | 313° |
| 2026-05-05 18:57 | 53.38356 | 10.78921 | 37933 ft | 436 kts | 312° |
| 2026-05-05 18:57 | 53.42782 | 10.72031 | 37631 ft | 430 kts | 312° |
| 2026-05-05 18:58 | 53.44948 | 10.68645 | 37356 ft | 422 kts | 312° |
| 2026-05-05 18:58 | 53.47076 | 10.65307 | 37093 ft | 415 kts | 311° |
| 2026-05-05 18:58 | 53.49170 | 10.62014 | 36818 ft | 409 kts | 311° |
| 2026-05-05 18:58 | 53.51230 | 10.58772 | 36553 ft | 402 kts | 311° |
| 2026-05-05 18:59 | 53.53258 | 10.55580 | 36292 ft | 396 kts | 310° |
| 2026-05-05 18:59 | 53.55249 | 10.52446 | 36039 ft | 389 kts | 310° |
| 2026-05-05 18:59 | 53.56428 | 10.50583 | 35883 ft | 386 kts | 310° |
| 2026-05-05 19:00 | 53.58097 | 10.47941 | 35664 ft | 381 kts | 310° |
| 2026-05-05 19:00 | 53.60021 | 10.44907 | 35408 ft | 375 kts | 309° |
| 2026-05-05 19:00 | 53.61903 | 10.41939 | 35149 ft | 370 kts | 309° |
| 2026-05-05 19:00 | 53.63144 | 10.39976 | 34981 ft | 369 kts | 309° |
| 2026-05-05 19:01 | 53.65002 | 10.37032 | 34730 ft | 365 kts | 308° |
| 2026-05-05 19:01 | 53.67436 | 10.33170 | 34405 ft | 359 kts | 308° |
| 2026-05-05 19:01 | 53.68656 | 10.31230 | 34248 ft | 357 kts | 308° |
| 2026-05-05 19:01 | 53.71033 | 10.27449 | 33925 ft | 351 kts | 307° |
| 2026-05-05 19:02 | 53.72223 | 10.25551 | 33750 ft | 348 kts | 307° |
| 2026-05-05 19:02 | 53.73974 | 10.22758 | 33460 ft | 344 kts | 307° |
| 2026-05-05 19:02 | 53.75705 | 10.19988 | 33182 ft | 346 kts | 307° |
| 2026-05-05 19:02 | 53.77475 | 10.17127 | 32922 ft | 358 kts | 307° |
| 2026-05-05 19:03 | 53.79296 | 10.14183 | 32655 ft | 362 kts | 308° |
| 2026-05-05 19:03 | 53.81119 | 10.11264 | 32390 ft | 358 kts | 308° |
| 2026-05-05 19:03 | 53.82903 | 10.08424 | 32132 ft | 354 kts | 308° |
| 2026-05-05 19:03 | 53.84685 | 10.05582 | 31875 ft | 350 kts | 308° |
| 2026-05-05 19:04 | 53.86443 | 10.02771 | 31615 ft | 345 kts | 308° |
| 2026-05-05 19:04 | 53.88196 | 9.99956 | 31361 ft | 340 kts | 308° |
| 2026-05-05 19:04 | 53.89879 | 9.97245 | 31113 ft | 336 kts | 308° |
| 2026-05-05 19:04 | 53.91559 | 9.94536 | 30855 ft | 331 kts | 308° |
| 2026-05-05 19:05 | 53.93208 | 9.91871 | 30620 ft | 326 kts | 308° |
| 2026-05-05 19:05 | 53.94836 | 9.89237 | 30365 ft | 321 kts | 308° |
| 2026-05-05 19:05 | 53.96441 | 9.86633 | 30124 ft | 318 kts | 308° |
| 2026-05-05 19:05 | 53.98034 | 9.84047 | 29867 ft | 316 kts | 308° |
| 2026-05-05 19:06 | 53.99621 | 9.81469 | 29580 ft | 314 kts | 308° |
| 2026-05-05 19:06 | 54.01194 | 9.78911 | 29294 ft | 312 kts | 308° |
| 2026-05-05 19:06 | 54.02756 | 9.76364 | 29015 ft | 310 kts | 308° |
| 2026-05-05 19:06 | 54.04308 | 9.73830 | 28737 ft | 309 kts | 308° |
| 2026-05-05 19:07 | 54.05856 | 9.71303 | 28454 ft | 307 kts | 308° |
| 2026-05-05 19:07 | 54.07387 | 9.68800 | 28191 ft | 305 kts | 308° |
| 2026-05-05 19:07 | 54.08913 | 9.66304 | 27920 ft | 303 kts | 308° |
| 2026-05-05 19:07 | 54.10429 | 9.63822 | 27653 ft | 301 kts | 308° |
| 2026-05-05 19:08 | 54.11934 | 9.61351 | 27389 ft | 299 kts | 308° |
| 2026-05-05 19:08 | 54.13431 | 9.58889 | 27120 ft | 298 kts | 308° |
| 2026-05-05 19:08 | 54.14915 | 9.56449 | 26870 ft | 296 kts | 308° |
| 2026-05-05 19:08 | 54.16391 | 9.54025 | 26578 ft | 293 kts | 308° |
| 2026-05-05 19:09 | 54.17835 | 9.51652 | 26175 ft | 292 kts | 308° |
| 2026-05-05 19:09 | 54.19324 | 9.49191 | 25276 ft | 302 kts | 309° |
| 2026-05-05 19:09 | 54.20835 | 9.46692 | 24668 ft | 301 kts | 309° |
| 2026-05-05 19:09 | 54.22338 | 9.44221 | 24164 ft | 298 kts | 309° |
| 2026-05-05 19:10 | 54.23825 | 9.41777 | 23686 ft | 294 kts | 310° |
| 2026-05-05 19:10 | 54.25287 | 9.39369 | 23167 ft | 290 kts | 310° |
| 2026-05-05 19:10 | 54.26729 | 9.36988 | 22642 ft | 286 kts | 310° |
| 2026-05-05 19:10 | 54.28153 | 9.34635 | 22125 ft | 282 kts | 310° |
| 2026-05-05 19:11 | 54.29548 | 9.32319 | 21616 ft | 278 kts | 310° |
| 2026-05-05 19:11 | 54.30930 | 9.30026 | 21102 ft | 275 kts | 310° |
| 2026-05-05 19:11 | 54.32292 | 9.27761 | 20616 ft | 271 kts | 310° |
| 2026-05-05 19:11 | 54.33639 | 9.25519 | 20127 ft | 268 kts | 310° |
| 2026-05-05 19:12 | 54.34970 | 9.23303 | 19646 ft | 265 kts | 310° |
| 2026-05-05 19:12 | 54.36269 | 9.21141 | 19183 ft | 262 kts | 310° |
| 2026-05-05 19:12 | 54.37589 | 9.18942 | 18713 ft | 259 kts | 310° |
| 2026-05-05 19:12 | 54.38873 | 9.16795 | 18257 ft | 257 kts | 310° |
| 2026-05-05 19:13 | 54.39902 | 9.14340 | 17290 ft | 260 kts | 287° |
| 2026-05-05 19:13 | 54.40149 | 9.11246 | 16487 ft | 271 kts | 267° |
| 2026-05-05 19:13 | 54.40003 | 9.07679 | 15837 ft | 325 kts | 264° |
| 2026-05-05 19:13 | 54.39789 | 9.03729 | 15083 ft | 338 kts | 264° |
| 2026-05-05 19:14 | 54.39559 | 8.99628 | 13993 ft | 352 kts | 264° |
| 2026-05-05 19:14 | 54.39316 | 8.95368 | 12793 ft | 365 kts | 264° |
| 2026-05-05 19:14 | 54.39065 | 8.91005 | 11909 ft | 368 kts | 264° |
| 2026-05-05 19:14 | 54.38814 | 8.86652 | 11156 ft | 366 kts | 264° |
| 2026-05-05 19:15 | 54.38561 | 8.82325 | 10440 ft | 363 kts | 264° |
| 2026-05-05 19:15 | 54.38310 | 8.78071 | 10132 ft | 350 kts | 264° |
| 2026-05-05 19:15 | 54.38071 | 8.74023 | 10014 ft | 332 kts | 264° |
| 2026-05-05 19:15 | 54.37842 | 8.70173 | 9895 ft | 317 kts | 264° |
| 2026-05-05 19:16 | 54.37622 | 8.66478 | 9767 ft | 304 kts | 264° |
| 2026-05-05 19:16 | 54.37412 | 8.62981 | 9639 ft | 293 kts | 264° |
| 2026-05-05 19:16 | 54.37204 | 8.59537 | 9503 ft | 282 kts | 264° |
| 2026-05-05 19:16 | 54.37008 | 8.56286 | 9304 ft | 274 kts | 264° |
| 2026-05-05 19:17 | 54.36810 | 8.53052 | 8997 ft | 271 kts | 264° |
| 2026-05-05 19:17 | 54.36613 | 8.49842 | 8657 ft | 270 kts | 264° |
| 2026-05-05 19:17 | 54.36416 | 8.46643 | 8298 ft | 269 kts | 264° |
| 2026-05-05 19:17 | 54.36220 | 8.43447 | 7928 ft | 269 kts | 264° |
| 2026-05-05 19:18 | 54.36173 | 8.40240 | 7559 ft | 269 kts | 280° |
| 2026-05-05 19:18 | 54.36908 | 8.37330 | 7202 ft | 270 kts | 308° |
| 2026-05-05 19:18 | 54.38368 | 8.35348 | 6840 ft | 271 kts | 336° |
| 2026-05-05 19:18 | 54.40201 | 8.34788 | 6498 ft | 270 kts | 5° |
| 2026-05-05 19:19 | 54.41944 | 8.35761 | 6164 ft | 268 kts | 33° |
| 2026-05-05 19:19 | 54.43323 | 8.37894 | 5833 ft | 266 kts | 47° |
| 2026-05-05 19:19 | 54.44565 | 8.40237 | 5520 ft | 264 kts | 49° |
| 2026-05-05 19:19 | 54.45784 | 8.42572 | 5220 ft | 261 kts | 49° |
| 2026-05-05 19:20 | 54.46995 | 8.44883 | 4939 ft | 258 kts | 49° |
| 2026-05-05 19:20 | 54.48193 | 8.47158 | 4650 ft | 255 kts | 49° |
| 2026-05-05 19:20 | 54.49386 | 8.49401 | 4341 ft | 253 kts | 48° |
| 2026-05-05 19:20 | 54.50806 | 8.51143 | 4009 ft | 254 kts | 22° |
| 2026-05-05 19:21 | 54.52554 | 8.51637 | 3673 ft | 256 kts | 6° |
| 2026-05-05 19:21 | 54.54339 | 8.51751 | 3326 ft | 257 kts | 4° |
| 2026-05-05 19:21 | 54.56120 | 8.51823 | 3047 ft | 254 kts | 4° |
| 2026-05-05 19:21 | 54.57884 | 8.51887 | 2991 ft | 254 kts | 4° |
| 2026-05-05 19:22 | 54.59660 | 8.51960 | 2996 ft | 255 kts | 4° |
| 2026-05-05 19:22 | 54.61434 | 8.52036 | 2997 ft | 255 kts | 4° |
| 2026-05-05 19:22 | 54.63210 | 8.52114 | 2998 ft | 256 kts | 4° |
| 2026-05-05 19:22 | 54.64992 | 8.52192 | 2998 ft | 256 kts | 4° |
| 2026-05-05 19:23 | 54.66776 | 8.52271 | 3003 ft | 256 kts | 4° |
| 2026-05-05 19:23 | 54.68560 | 8.52352 | 3003 ft | 257 kts | 4° |
| 2026-05-05 19:23 | 54.70347 | 8.52431 | 3005 ft | 257 kts | 4° |
| 2026-05-05 19:23 | 54.72136 | 8.52506 | 3006 ft | 257 kts | 4° |
| 2026-05-05 19:24 | 54.73926 | 8.52573 | 3004 ft | 257 kts | 4° |
| 2026-05-05 19:24 | 54.75712 | 8.52454 | 3003 ft | 259 kts | 351° |
| 2026-05-05 19:24 | 54.77365 | 8.51271 | 3006 ft | 254 kts | 329° |
| 2026-05-05 19:24 | 54.78788 | 8.49529 | 2876 ft | 248 kts | 327° |
| 2026-05-05 19:25 | 54.80157 | 8.47836 | 2598 ft | 240 kts | 327° |
| 2026-05-05 19:25 | 54.81448 | 8.46240 | 2281 ft | 210 kts | 328° |
| 2026-05-05 19:25 | 54.82574 | 8.44851 | 1995 ft | 189 kts | 329° |
| 2026-05-05 19:25 | 54.83613 | 8.43573 | 1752 ft | 179 kts | 329° |
| 2026-05-05 19:26 | 54.84609 | 8.42347 | 1507 ft | 173 kts | 329° |
| 2026-05-05 19:26 | 54.85578 | 8.41153 | 1262 ft | 169 kts | 329° |
| 2026-05-05 19:26 | 54.86495 | 8.40017 | 1030 ft | 150 kts | 329° |
| 2026-05-05 19:26 | 54.87299 | 8.39021 | 832 ft | 135 kts | 329° |
| 2026-05-05 19:27 | 54.88043 | 8.38105 | 648 ft | 129 kts | 328° |
| 2026-05-05 19:27 | 54.88761 | 8.37218 | 473 ft | 122 kts | 328° |
| 2026-05-05 19:27 | 54.89440 | 8.36378 | 306 ft | 119 kts | 329° |
| 2026-05-05 19:27 | 54.90113 | 8.35547 | 151 ft | 118 kts | 329° |
| 2026-05-05 19:28 | 54.90775 | 8.34726 | 42 ft | 108 kts | 324° |
| 2026-05-05 19:28 | 54.91184 | 8.34219 | 43 ft | 37 kts | 322° |
| 2026-05-05 19:28 | 54.91322 | 8.34039 | 41 ft | 39 kts | 324° |
| 2026-05-05 19:28 | 54.91562 | 8.33730 | 43 ft | 25 kts | 324° |
| 2026-05-05 19:29 | 54.91630 | 8.33637 | 43 ft | 20 kts | 315° |
| 2026-05-05 19:29 | 54.91705 | 8.33443 | 42 ft | 18 kts | 295° |
| 2026-05-05 19:29 | 54.91742 | 8.33278 | 40 ft | 13 kts | 287° |
| 2026-05-05 19:29 | 54.91690 | 8.33182 | 41 ft | 13 kts | 185° |
| 2026-05-05 19:30 | 54.91587 | 8.33182 | 41 ft | 16 kts | 180° |
| 2026-05-05 19:30 | 54.91469 | 8.33197 | 39 ft | 17 kts | 151° |
| 2026-05-05 19:30 | 54.91369 | 8.33251 | 39 ft | 14 kts | 177° |
| 2026-05-05 19:30 | 54.91311 | 8.33157 | 40 ft | 11 kts | 264° |
| 2026-05-05 19:31 | 54.91312 | 8.33102 | 40 ft | 0 kts | 274° |
| 2026-05-05 19:37 | 54.91312 | 8.33101 | 40 ft | 0 kts | 274° |